KLSV

Nellis AFB Airport

Las Vegas, Nevada, USA
METAR KLSV 190658Z AUTO 00000KT 10SM CLR 13/03 A3001 RMK AO2 SLP155 T01290030 $
Observed Flight Rules
Jan-19 @ 06:58 UTC (27 minutes ago) Visual Flight Rules
Wind Visibility Clouds
Calm 10 miles
  • Clear skies
Temperatures Readings
Current 13°C / 55°F
Dewpoint 3°C / 37°F
Humidity 51%
Altimeter 30.01" Hg
Pressure 1015.5 hPa
Elevation 570
METAR KLSV 190658Z AUTO 00000KT 10SM CLR 13/03 A3001 RMK AO2 SLP155 T01290030 $
Observed Flight Rules
Jan-19 @ 06:58 UTC
(27 minutes ago)
VFR
Wind Visibility
Calm 10 miles
Clouds
  • Clear skies
Temperature Dewpoint
13°C / 55°F 3°C / 37°F
Humidity Altimeter Pressure
51% 30.01" Hg 1015.5 hPa